Nain, Canada
Current Conditions -  °F | °C
As of 8:00 PM on Monday 24 Nov 2014 (Local Time) from CYDP Reporting Station
Light Snow Light Snow  
Wind Chill:   Ceiling: 8000
Heat Index: 19°   Visibility: 15mi
Dew Point: 16°   Wind: 10mph
Humidity: 86%   Direction: 130°SE
Pressure: 29.73"   Gusts: NA
Location:  56.55°N, 61.68°W
Report Text: CYDP 250000Z 13009KT 15SM -SN OVC080 M07/M09 A2973 RMK AS8/S01/PRESFR LAST STAFFED OB/ NEXT 250900 SLP068
Loading
Personal Weather Stations






























Interactive Weather Map New forecast layout! Learn more

10-Day Weather Forecast

Advertisements
Track Severe Weather on mobile